createdAt,value
2022-10-11T00:02:02.590Z,17
2022-10-11T00:05:02.594Z,16.4
2022-10-11T00:08:02.627Z,16.2
2022-10-11T00:11:02.629Z,17.5
2022-10-11T00:14:02.616Z,17.7
2022-10-11T00:17:02.627Z,17.6
2022-10-11T00:20:02.627Z,14.8
2022-10-11T00:23:02.640Z,17.5
2022-10-11T00:26:03.079Z,16.6
2022-10-11T00:29:02.653Z,16.2
2022-10-11T00:32:02.662Z,21
2022-10-11T00:35:02.660Z,21.5
2022-10-11T00:38:02.676Z,19
2022-10-11T00:41:02.672Z,16.9
2022-10-11T00:44:02.706Z,17.5
2022-10-11T00:47:02.693Z,17.3
2022-10-11T00:50:02.708Z,17
2022-10-11T00:53:02.696Z,18.1
2022-10-11T00:56:03.167Z,18.4
2022-10-11T00:59:02.721Z,16.6
2022-10-11T01:02:02.754Z,15.8
2022-10-11T01:05:25.572Z,18.4
2022-10-11T01:08:02.743Z,17.3
2022-10-11T01:11:02.744Z,16.9
2022-10-11T01:14:02.761Z,19.1
2022-10-11T01:17:02.775Z,19.8
2022-10-11T01:20:02.795Z,17.5
2022-10-11T01:23:02.776Z,20.2
2022-10-11T01:26:03.161Z,17.3
2022-10-11T01:29:02.783Z,18.7
2022-10-11T01:32:02.794Z,20
2022-10-11T01:35:02.794Z,21.3
2022-10-11T01:38:02.834Z,21.8
2022-10-11T01:41:02.817Z,18.9
2022-10-11T01:44:02.817Z,19.6
2022-10-11T01:47:02.818Z,19.7
2022-10-11T01:50:02.834Z,21.1
2022-10-11T01:53:02.844Z,17.1
2022-10-11T01:56:03.259Z,17.8
2022-10-11T01:59:02.853Z,24.3
2022-10-11T02:02:02.864Z,20.7
2022-10-11T02:05:02.873Z,18.8
2022-10-11T02:08:02.878Z,18.6
2022-10-11T02:11:02.887Z,18.2
2022-10-11T02:14:02.920Z,17.2
2022-10-11T02:17:02.907Z,19.9
2022-10-11T02:20:02.911Z,16.6
2022-10-11T02:23:02.914Z,15.9
2022-10-11T02:26:03.305Z,20.3
2022-10-11T02:29:02.931Z,19
2022-10-11T02:32:02.972Z,17.6
2022-10-11T02:35:02.948Z,22.8
2022-10-11T02:38:02.955Z,18.3
2022-10-11T02:41:02.961Z,19.8
2022-10-11T02:44:02.977Z,19.4
2022-10-11T02:47:02.983Z,18.9
2022-10-11T02:50:03.021Z,23.1
2022-10-11T02:53:03.001Z,18.3
2022-10-11T02:56:03.353Z,18.3
2022-10-11T02:59:03.020Z,18.9
2022-10-11T03:02:03.085Z,21.3
2022-10-11T03:05:03.040Z,19.5
2022-10-11T03:08:03.076Z,19.4
2022-10-11T03:11:03.057Z,20.6
2022-10-11T03:14:03.056Z,18.5
2022-10-11T03:17:17.527Z,20.2
2022-10-11T03:20:03.078Z,15.5
2022-10-11T03:23:03.088Z,18.5
2022-10-11T03:26:03.499Z,20.6
2022-10-11T03:29:03.111Z,18.6
2022-10-11T03:32:03.120Z,22.1
2022-10-11T03:35:03.128Z,15.7
2022-10-11T03:38:03.130Z,17.3
2022-10-11T03:41:03.154Z,19.3
2022-10-11T03:44:03.188Z,18.5
2022-10-11T03:47:03.167Z,15.9
2022-10-11T03:50:03.178Z,19.9
2022-10-11T03:53:03.202Z,15.5
2022-10-11T03:56:07.468Z,19
2022-10-11T03:59:03.221Z,13.7
2022-10-11T04:02:03.322Z,17.4
2022-10-11T04:05:03.239Z,17.1
2022-10-11T04:08:03.408Z,16.9
2022-10-11T04:11:03.316Z,16.6
2022-10-11T04:14:03.274Z,20.6
2022-10-11T04:17:03.283Z,15.3
2022-10-11T04:20:03.317Z,15.1
2022-10-11T04:23:03.303Z,16.8
2022-10-11T04:26:03.724Z,20.9
2022-10-11T04:29:03.316Z,16.2
2022-10-11T04:32:03.328Z,16
2022-10-11T04:35:04.700Z,16.9
2022-10-11T04:38:03.386Z,17.6
2022-10-11T04:41:03.366Z,19
2022-10-11T04:44:03.375Z,18.7
2022-10-11T04:47:03.389Z,18.5
2022-10-11T04:50:03.459Z,20.5
2022-10-11T04:53:03.412Z,18.8
2022-10-11T04:56:03.939Z,18.8
2022-10-11T04:59:03.437Z,18.7
2022-10-11T05:02:03.516Z,19.4
2022-10-11T05:05:03.499Z,20.8
2022-10-11T05:08:03.478Z,17.8
2022-10-11T05:11:03.482Z,20
2022-10-11T05:14:03.517Z,19.2
2022-10-11T05:17:03.503Z,20.3
2022-10-11T05:20:03.509Z,17.2
2022-10-11T05:23:03.527Z,19.2
2022-10-11T05:26:03.986Z,19.9
2022-10-11T05:29:03.643Z,20.8
2022-10-11T05:32:03.577Z,18.7
2022-10-11T05:35:03.572Z,21
2022-10-11T05:38:03.577Z,18.1
2022-10-11T05:41:03.588Z,21.8
2022-10-11T05:44:03.595Z,19.1
2022-10-11T05:47:03.604Z,23.6
2022-10-11T05:50:03.839Z,22.7
2022-10-11T05:53:03.628Z,22.9
2022-10-11T05:56:03.988Z,19.9
2022-10-11T05:59:03.657Z,19.6
2022-10-11T06:02:03.668Z,24.1
2022-10-11T06:05:03.768Z,24.2
2022-10-11T06:08:03.718Z,22
2022-10-11T06:11:03.691Z,22.1
2022-10-11T06:14:03.708Z,22.6
2022-10-11T06:17:03.710Z,23.5
2022-10-11T06:20:03.823Z,20.4
2022-10-11T06:23:03.734Z,20
2022-10-11T06:26:04.108Z,23.1
2022-10-11T06:29:03.760Z,20.9
2022-10-11T06:32:03.764Z,22.3
2022-10-11T06:35:03.906Z,21.3
2022-10-11T06:38:03.794Z,18.1
2022-10-11T06:41:03.850Z,15.8
2022-10-11T06:44:03.923Z,16.8
2022-10-11T06:47:03.866Z,18.8
2022-10-11T06:50:03.956Z,19
2022-10-11T06:53:03.836Z,18.6
2022-10-11T06:56:04.195Z,17.6
2022-10-11T06:59:03.867Z,14.5
2022-10-11T07:02:03.897Z,15.5
2022-10-11T07:05:04.017Z,16.8
2022-10-11T07:08:03.904Z,15.8
2022-10-11T07:11:03.913Z,18.5
2022-10-11T07:14:03.924Z,14.6
2022-10-11T07:17:03.942Z,13.4
2022-10-11T07:20:04.139Z,15.7
2022-10-11T07:23:03.957Z,15.9
2022-10-11T07:26:04.343Z,14.6
2022-10-11T07:29:04.098Z,13.4
2022-10-11T07:32:03.993Z,12.5
2022-10-11T07:35:04.322Z,13
2022-10-11T07:38:04.036Z,14.4
2022-10-11T07:41:04.026Z,11.8
2022-10-11T07:44:04.045Z,12.3
2022-10-11T07:47:06.685Z,11.4
2022-10-11T07:50:04.204Z,13.7
2022-10-11T07:53:04.072Z,14.3
2022-10-11T07:56:04.486Z,14.2
2022-10-11T07:59:04.093Z,13.5
2022-10-11T08:02:04.115Z,11.4
2022-10-11T08:05:04.273Z,15.3
2022-10-11T08:08:04.153Z,16.2
2022-10-11T08:11:04.145Z,11.6
2022-10-11T08:14:04.181Z,12.2
2022-10-11T08:17:04.164Z,12.5
2022-10-11T08:20:04.462Z,13.9
2022-10-11T08:23:04.182Z,13
2022-10-11T08:26:04.517Z,13.4
2022-10-11T08:29:04.208Z,14.5
2022-10-11T08:32:04.243Z,13.4
2022-10-11T08:35:04.557Z,12.3
2022-10-11T08:38:04.243Z,13.1
2022-10-11T08:41:04.251Z,13.2
2022-10-11T08:44:04.266Z,12.5
2022-10-11T08:47:04.271Z,8.9
2022-10-11T08:50:04.549Z,12.3
2022-10-11T08:53:04.291Z,10.8
2022-10-11T08:56:04.638Z,10.2
2022-10-11T08:59:04.316Z,11.4
2022-10-11T09:02:04.330Z,11
2022-10-11T09:05:04.563Z,11.8
2022-10-11T09:08:04.401Z,10.9
2022-10-11T09:11:04.355Z,10.8
2022-10-11T09:14:04.366Z,10.6
2022-10-11T09:17:04.373Z,9.7
2022-10-11T09:20:04.382Z,12.3
2022-10-11T09:23:04.391Z,10.5
2022-10-11T09:26:04.710Z,13.8
2022-10-11T09:29:04.474Z,10.6
2022-10-11T09:32:04.421Z,9.4
2022-10-11T09:35:04.435Z,10.7
2022-10-11T09:38:04.437Z,11.4
2022-10-11T09:41:04.453Z,10.9
2022-10-11T09:44:04.488Z,11.9
2022-10-11T09:47:04.472Z,10.7
2022-10-11T09:50:04.486Z,10.8
2022-10-11T09:53:04.482Z,8.4
2022-10-11T09:56:04.973Z,10.8
2022-10-11T09:59:04.505Z,7.9
2022-10-11T10:02:04.554Z,9.2
2022-10-11T10:05:04.523Z,10.1
2022-10-11T10:08:05.291Z,11.1
2022-10-11T10:11:04.532Z,10
2022-10-11T10:14:04.545Z,7.7
2022-10-11T10:17:04.556Z,9
2022-10-11T10:20:04.596Z,8.6
2022-10-11T10:23:04.575Z,8.6
2022-10-11T10:26:04.879Z,9.3
2022-10-11T10:29:04.587Z,8
2022-10-11T10:32:19.980Z,11.4
2022-10-11T10:35:04.646Z,11.2
2022-10-11T10:38:04.641Z,10.4
2022-10-11T10:41:04.626Z,10.9
2022-10-11T10:44:04.633Z,9.3
2022-10-11T10:47:04.642Z,8.7
2022-10-11T10:50:04.653Z,10.9
2022-10-11T10:53:04.655Z,9.3
2022-10-11T10:56:05.119Z,8.7
2022-10-11T10:59:04.676Z,10.2
2022-10-11T11:02:15.823Z,9.4
2022-10-11T11:05:04.717Z,8.9
2022-10-11T11:08:04.696Z,10.2
2022-10-11T11:11:04.695Z,8.5
2022-10-11T11:14:04.727Z,8.6
2022-10-11T11:17:04.716Z,7.7
2022-10-11T11:20:04.720Z,8.6
2022-10-11T11:23:04.736Z,9.3
2022-10-11T11:26:04.967Z,8.2
2022-10-11T11:29:04.740Z,8.3
2022-10-11T11:32:04.781Z,10.7
2022-10-11T11:35:04.774Z,8.8
2022-10-11T11:38:06.455Z,6.6
2022-10-11T11:41:05.034Z,10.5
2022-10-11T11:44:04.768Z,7.8
2022-10-11T11:47:04.777Z,7.5
2022-10-11T11:50:04.846Z,6.7
2022-10-11T11:53:04.781Z,8.9
2022-10-11T11:56:04.785Z,8.1
2022-10-11T11:59:04.779Z,8.5
2022-10-11T12:02:04.861Z,8.3
2022-10-11T12:05:04.798Z,8.9
2022-10-11T12:08:04.820Z,8.7
2022-10-11T12:11:05.118Z,8.3
2022-10-11T12:14:04.794Z,9.9
2022-10-11T12:17:04.803Z,8
2022-10-11T12:20:04.797Z,10.8
2022-10-11T12:23:04.801Z,9.8
2022-10-11T12:26:04.843Z,7.2
2022-10-11T12:29:04.813Z,10.5
2022-10-11T12:32:04.804Z,8.2
2022-10-11T12:35:04.856Z,8.8
2022-10-11T12:38:04.809Z,7.3
2022-10-11T12:41:04.806Z,8.6
2022-10-11T12:44:04.834Z,8.7
2022-10-11T12:47:04.812Z,7.7
2022-10-11T12:50:04.811Z,8.7
2022-10-11T12:53:04.816Z,7.9
2022-10-11T12:56:05.188Z,5.4
2022-10-11T12:59:04.824Z,7.4
2022-10-11T13:02:04.847Z,7.5
2022-10-11T13:05:04.826Z,7.5
2022-10-11T13:08:04.931Z,8.1
2022-10-11T13:11:04.822Z,8.9
2022-10-11T13:14:04.824Z,7.4
2022-10-11T13:17:04.837Z,7.5
2022-10-11T13:20:04.860Z,7.7
2022-10-11T13:23:04.837Z,6.9
2022-10-11T13:26:04.848Z,8.4
2022-10-11T13:29:04.841Z,7.7
2022-10-11T13:32:04.839Z,8.4
2022-10-11T13:35:04.841Z,8.9
2022-10-11T13:38:04.869Z,6.6
2022-10-11T13:41:04.849Z,7.1
2022-10-11T13:44:04.844Z,9.5
2022-10-11T13:47:04.846Z,8.9
2022-10-11T13:50:04.851Z,9.8
2022-10-11T13:53:04.857Z,9.1
2022-10-11T13:56:05.229Z,11.4
2022-10-11T13:59:04.861Z,7.7
2022-10-11T14:02:04.867Z,9.6
2022-10-11T14:05:04.880Z,9.1
2022-10-11T14:08:04.877Z,8.5
2022-10-11T14:11:06.413Z,10.3
2022-10-11T14:14:05.064Z,7.6
2022-10-11T14:17:04.881Z,6.4
2022-10-11T14:20:08.778Z,6.2
2022-10-11T14:23:04.883Z,8
2022-10-11T14:26:05.103Z,7.5
2022-10-11T14:29:04.893Z,7.4
2022-10-11T14:32:04.919Z,7.1
2022-10-11T14:35:04.899Z,8
2022-10-11T14:38:04.899Z,8.2
2022-10-11T14:41:04.900Z,9.1
2022-10-11T14:44:04.902Z,9.5
2022-10-11T14:47:04.909Z,7.8
2022-10-11T14:50:04.948Z,7
2022-10-11T14:53:04.921Z,9
2022-10-11T14:56:05.230Z,10.9
2022-10-11T14:59:04.911Z,8.6
2022-10-11T15:02:04.916Z,6.5
2022-10-11T15:05:04.918Z,8.7
2022-10-11T15:08:04.943Z,8.7
2022-10-11T15:11:04.921Z,7.7
2022-10-11T15:14:04.923Z,7.8
2022-10-11T15:17:04.922Z,12.1
2022-10-11T15:20:04.932Z,10.5
2022-10-11T15:23:04.930Z,9.8
2022-10-11T15:26:05.327Z,10
2022-10-11T15:29:04.936Z,9.7
2022-10-11T15:32:04.939Z,9.8
2022-10-11T15:35:04.940Z,8.5
2022-10-11T15:38:04.938Z,8.2
2022-10-11T15:41:04.942Z,8.4
2022-10-11T15:44:04.973Z,10.2
2022-10-11T15:47:04.944Z,10.4
2022-10-11T15:50:04.941Z,8.7
2022-10-11T15:53:04.952Z,9.5
2022-10-11T15:56:05.339Z,10.7
2022-10-11T15:59:04.949Z,9.9
2022-10-11T16:02:05.020Z,9.7
2022-10-11T16:05:04.952Z,10
2022-10-11T16:08:04.955Z,13.2
2022-10-11T16:11:04.956Z,9.7
2022-10-11T16:14:04.958Z,8.3
2022-10-11T16:17:04.955Z,8.8
2022-10-11T16:20:04.994Z,9.4
2022-10-11T16:23:05.069Z,10
2022-10-11T16:26:05.356Z,12.3
2022-10-11T16:29:04.971Z,9.8
2022-10-11T16:32:04.977Z,9.7
2022-10-11T16:35:04.980Z,7.8
2022-10-11T16:38:05.007Z,10.3
2022-10-11T16:41:04.972Z,9.6
2022-10-11T16:44:04.982Z,8.9
2022-10-11T16:47:04.977Z,8.5
2022-10-11T16:50:04.976Z,9.2
2022-10-11T16:53:04.987Z,8.1
2022-10-11T16:56:05.215Z,7
2022-10-11T16:59:04.989Z,9.1
2022-10-11T17:02:04.990Z,8.3
2022-10-11T17:05:04.998Z,10
2022-10-11T17:08:05.039Z,10.2
2022-10-11T17:11:04.993Z,7.5
2022-10-11T17:14:05.025Z,11.6
2022-10-11T17:17:05.008Z,10.4
2022-10-11T17:20:05.001Z,8.1
2022-10-11T17:23:05.003Z,11
2022-10-11T17:26:08.685Z,10.4
2022-10-11T17:29:05.007Z,10.3
2022-10-11T17:32:05.031Z,7.8
2022-10-11T17:35:05.009Z,9.2
2022-10-11T17:38:06.261Z,10.3
2022-10-11T17:41:05.346Z,11.4
2022-10-11T17:44:05.016Z,8.3
2022-10-11T17:47:05.017Z,9.6
2022-10-11T17:50:05.049Z,8.8
2022-10-11T17:53:05.024Z,12.1
2022-10-11T17:56:05.019Z,10.7
2022-10-11T17:59:05.025Z,11.7
2022-10-11T18:02:05.031Z,9.5
2022-10-11T18:05:05.032Z,12.9
2022-10-11T18:08:05.056Z,12.5
2022-10-11T18:11:05.320Z,16.6
2022-10-11T18:14:05.036Z,14.3
2022-10-11T18:17:05.041Z,13.7
2022-10-11T18:20:05.042Z,12.7
2022-10-11T18:23:05.086Z,14
2022-10-11T18:26:05.318Z,17.9
2022-10-11T18:29:05.056Z,16.9
2022-10-11T18:32:05.057Z,15.1
2022-10-11T18:35:05.053Z,16.3
2022-10-11T18:38:05.055Z,18.1
2022-10-11T18:41:05.316Z,15.4
2022-10-11T18:44:05.093Z,17.6
2022-10-11T18:47:05.063Z,17.1
2022-10-11T18:50:05.061Z,15
2022-10-11T18:56:05.412Z,17
2022-10-11T18:59:05.069Z,17.8
2022-10-11T19:02:05.093Z,16.7
2022-10-11T19:05:05.076Z,18.1
2022-10-11T19:08:05.081Z,15.3
2022-10-11T19:11:05.082Z,17.4
2022-10-11T19:14:05.084Z,19.7
2022-10-11T19:17:05.082Z,17.8
2022-10-11T19:20:05.103Z,18.7
2022-10-11T19:23:05.091Z,18.7
2022-10-11T19:26:05.300Z,17.5
2022-10-11T19:29:05.115Z,17.2
2022-10-11T19:32:05.094Z,17.5
2022-10-11T19:35:05.102Z,19.3
2022-10-11T19:38:05.126Z,16.9
2022-10-11T19:41:05.106Z,15.8
2022-10-11T19:44:05.116Z,15
2022-10-11T19:47:05.450Z,17.2
2022-10-11T19:50:05.124Z,18.2
2022-10-11T19:53:05.131Z,16.4
2022-10-11T19:56:05.152Z,17.2
2022-10-11T19:59:05.136Z,18.2
2022-10-11T20:02:05.136Z,16.2
2022-10-11T20:05:05.163Z,16.9
2022-10-11T20:08:05.150Z,16.2
2022-10-11T20:11:05.148Z,16.7
2022-10-11T20:14:05.171Z,16.1
2022-10-11T20:17:05.151Z,18.6
2022-10-11T20:20:05.159Z,14.8
2022-10-11T20:23:05.161Z,14.3
2022-10-11T20:26:05.163Z,16
2022-10-11T20:29:05.171Z,16.5
2022-10-11T20:32:05.199Z,16.7
2022-10-11T20:35:05.188Z,13.1
2022-10-11T20:38:05.187Z,14.4
2022-10-11T20:41:05.192Z,14
2022-10-11T20:44:05.195Z,13.8
2022-10-11T20:47:05.203Z,13.4
2022-10-11T20:50:05.229Z,14.2
2022-10-11T20:53:05.206Z,13.3
2022-10-11T20:56:05.212Z,15.9
2022-10-11T20:59:05.212Z,12.5
2022-10-11T21:02:05.224Z,12.5
2022-10-11T21:05:05.226Z,13.3
2022-10-11T21:08:05.245Z,14.2
2022-10-11T21:11:05.226Z,15.9
2022-10-11T21:14:05.229Z,15.6
2022-10-11T21:17:05.233Z,17.1
2022-10-11T21:20:05.236Z,15.9
2022-10-11T21:23:05.244Z,16.2
2022-10-11T21:26:05.279Z,15.3
2022-10-11T21:29:05.254Z,15.9
2022-10-11T21:32:05.254Z,22.6
2022-10-11T21:35:05.265Z,18.5
2022-10-11T21:38:05.265Z,19.7
2022-10-11T21:41:05.270Z,16.8
2022-10-11T21:44:05.300Z,16.6
2022-10-11T21:47:07.541Z,16.7
2022-10-11T21:50:05.293Z,16
2022-10-11T21:53:05.289Z,14.5
2022-10-11T21:56:05.296Z,18.4
2022-10-11T21:59:06.504Z,17.8
2022-10-11T22:02:05.368Z,17.4
2022-10-11T22:05:05.308Z,17.2
2022-10-11T22:08:05.318Z,18.7
2022-10-11T22:11:05.314Z,18.8
2022-10-11T22:14:05.328Z,17.4
2022-10-11T22:17:05.331Z,16.8
2022-10-11T22:20:05.363Z,14.5
2022-10-11T22:23:05.336Z,17.8
2022-10-11T22:26:05.348Z,15.4
2022-10-11T22:29:05.342Z,16
2022-10-11T22:32:05.345Z,14.9
2022-10-11T22:35:05.354Z,17.1
2022-10-11T22:38:05.387Z,17.5
2022-10-11T22:41:05.369Z,15.9
2022-10-11T22:44:05.371Z,18.3
2022-10-11T22:47:05.372Z,14.7
2022-10-11T22:50:05.379Z,18
2022-10-11T22:53:05.388Z,17.2
2022-10-11T22:56:05.422Z,21.4
2022-10-11T22:59:05.397Z,21.3
2022-10-11T23:02:05.392Z,19.3
2022-10-11T23:05:05.407Z,17.8
2022-10-11T23:08:05.416Z,19.8
2022-10-11T23:11:05.429Z,20.7
2022-10-11T23:14:05.445Z,19.3
2022-10-11T23:17:05.429Z,16.2
2022-10-11T23:20:05.442Z,14.9
2022-10-11T23:23:05.442Z,14.7
2022-10-11T23:26:05.458Z,15.2
2022-10-11T23:29:05.451Z,19.1
2022-10-11T23:32:05.478Z,18.2
2022-10-11T23:35:05.464Z,21.8
2022-10-11T23:38:05.463Z,17.8
2022-10-11T23:41:05.468Z,15.7
2022-10-11T23:44:05.473Z,15.9
2022-10-11T23:47:05.482Z,15
2022-10-11T23:50:05.519Z,16.1
2022-10-11T23:53:05.494Z,15.8
2022-10-11T23:56:05.506Z,15.4
2022-10-11T23:59:05.505Z,17.1
